sensor_id;sensor_type;location;lat;lon;timestamp;P1;durP1;ratioP1;P2;durP2;ratioP2
77111;SDS011;66064;50.226;14.344;2023-04-01T00:00:58;4.13;;;3.90;;
77111;SDS011;66064;50.226;14.344;2023-04-01T00:03:26;4.70;;;4.45;;
77111;SDS011;66064;50.226;14.344;2023-04-01T00:05:54;4.68;;;4.43;;
77111;SDS011;66064;50.226;14.344;2023-04-01T00:08:21;6.20;;;5.90;;
77111;SDS011;66064;50.226;14.344;2023-04-01T00:10:48;3.97;;;3.78;;
77111;SDS011;66064;50.226;14.344;2023-04-01T00:13:15;5.30;;;4.95;;
77111;SDS011;66064;50.226;14.344;2023-04-01T00:15:42;4.45;;;4.15;;
77111;SDS011;66064;50.226;14.344;2023-04-01T00:18:08;4.88;;;4.57;;
77111;SDS011;66064;50.226;14.344;2023-04-01T00:20:35;5.35;;;5.05;;
77111;SDS011;66064;50.226;14.344;2023-04-01T00:23:02;6.05;;;5.75;;
77111;SDS011;66064;50.226;14.344;2023-04-01T00:25:30;4.85;;;4.55;;
77111;SDS011;66064;50.226;14.344;2023-04-01T00:27:57;5.18;;;4.88;;
77111;SDS011;66064;50.226;14.344;2023-04-01T00:30:23;4.25;;;3.97;;
77111;SDS011;66064;50.226;14.344;2023-04-01T00:32:52;4.38;;;4.15;;
77111;SDS011;66064;50.226;14.344;2023-04-01T00:35:20;3.60;;;3.40;;
77111;SDS011;66064;50.226;14.344;2023-04-01T00:37:46;6.25;;;5.95;;
77111;SDS011;66064;50.226;14.344;2023-04-01T00:42:58;7.15;;;6.75;;
77111;SDS011;66064;50.226;14.344;2023-04-01T00:45:33;6.53;;;5.90;;
77111;SDS011;66064;50.226;14.344;2023-04-01T00:48:04;5.30;;;4.97;;
77111;SDS011;66064;50.226;14.344;2023-04-01T00:50:34;5.22;;;4.93;;
77111;SDS011;66064;50.226;14.344;2023-04-01T00:53:02;4.75;;;4.47;;
77111;SDS011;66064;50.226;14.344;2023-04-01T00:55:30;4.15;;;3.85;;
77111;SDS011;66064;50.226;14.344;2023-04-01T00:57:59;5.32;;;5.03;;
77111;SDS011;66064;50.226;14.344;2023-04-01T01:00:27;5.45;;;5.15;;
77111;SDS011;66064;50.226;14.344;2023-04-01T01:02:53;6.07;;;5.78;;
77111;SDS011;66064;50.226;14.344;2023-04-01T01:05:25;3.78;;;3.50;;
77111;SDS011;66064;50.226;14.344;2023-04-01T01:11:03;4.32;;;4.10;;
77111;SDS011;66064;50.226;14.344;2023-04-01T01:13:41;5.40;;;5.10;;
77111;SDS011;66064;50.226;14.344;2023-04-01T01:16:24;4.28;;;4.05;;
77111;SDS011;66064;50.226;14.344;2023-04-01T01:35:43;5.28;;;4.97;;
77111;SDS011;66064;50.226;14.344;2023-04-01T01:38:16;5.35;;;5.05;;
77111;SDS011;66064;50.226;14.344;2023-04-01T01:40:45;5.05;;;4.75;;
77111;SDS011;66064;50.226;14.344;2023-04-01T01:43:18;4.63;;;4.32;;
77111;SDS011;66064;50.226;14.344;2023-04-01T01:45:49;5.80;;;5.50;;
77111;SDS011;66064;50.226;14.344;2023-04-01T01:48:21;5.50;;;5.20;;
77111;SDS011;66064;50.226;14.344;2023-04-01T01:50:51;5.10;;;4.60;;
77111;SDS011;66064;50.226;14.344;2023-04-01T01:53:18;5.05;;;4.75;;
77111;SDS011;66064;50.226;14.344;2023-04-01T01:55:45;5.55;;;5.25;;
77111;SDS011;66064;50.226;14.344;2023-04-01T02:00:43;4.85;;;4.55;;
77111;SDS011;66064;50.226;14.344;2023-04-01T02:03:15;4.47;;;4.07;;
77111;SDS011;66064;50.226;14.344;2023-04-01T02:05:45;5.15;;;4.85;;
77111;SDS011;66064;50.226;14.344;2023-04-01T02:08:26;5.65;;;5.35;;
77111;SDS011;66064;50.226;14.344;2023-04-01T02:11:01;4.70;;;4.50;;
77111;SDS011;66064;50.226;14.344;2023-04-01T02:13:51;3.97;;;3.78;;
77111;SDS011;66064;50.226;14.344;2023-04-01T02:16:20;4.75;;;4.45;;
77111;SDS011;66064;50.226;14.344;2023-04-01T02:18:52;5.20;;;4.90;;
77111;SDS011;66064;50.226;14.344;2023-04-01T02:21:24;4.78;;;4.43;;
77111;SDS011;66064;50.226;14.344;2023-04-01T02:23:54;7.60;;;5.10;;
77111;SDS011;66064;50.226;14.344;2023-04-01T02:26:23;5.80;;;5.43;;
77111;SDS011;66064;50.226;14.344;2023-04-01T02:28:52;6.22;;;5.93;;
77111;SDS011;66064;50.226;14.344;2023-04-01T02:31:21;4.78;;;4.47;;
77111;SDS011;66064;50.226;14.344;2023-04-01T02:33:49;4.53;;;4.30;;
77111;SDS011;66064;50.226;14.344;2023-04-01T02:36:16;4.53;;;4.30;;
77111;SDS011;66064;50.226;14.344;2023-04-01T02:38:44;5.35;;;5.05;;
77111;SDS011;66064;50.226;14.344;2023-04-01T02:41:12;5.45;;;5.13;;
77111;SDS011;66064;50.226;14.344;2023-04-01T02:43:38;5.32;;;4.95;;
77111;SDS011;66064;50.226;14.344;2023-04-01T02:46:05;4.95;;;4.65;;
77111;SDS011;66064;50.226;14.344;2023-04-01T02:48:32;4.80;;;4.55;;
77111;SDS011;66064;50.226;14.344;2023-04-01T02:50:58;4.85;;;4.55;;
77111;SDS011;66064;50.226;14.344;2023-04-01T02:53:25;5.45;;;5.15;;
77111;SDS011;66064;50.226;14.344;2023-04-01T02:55:58;5.75;;;4.65;;
77111;SDS011;66064;50.226;14.344;2023-04-01T02:58:32;5.25;;;4.95;;
77111;SDS011;66064;50.226;14.344;2023-04-01T03:00:59;5.35;;;5.05;;
77111;SDS011;66064;50.226;14.344;2023-04-01T03:03:26;4.72;;;4.43;;
77111;SDS011;66064;50.226;14.344;2023-04-01T03:05:53;5.10;;;4.80;;
77111;SDS011;66064;50.226;14.344;2023-04-01T03:08:22;4.38;;;4.18;;
77111;SDS011;66064;50.226;14.344;2023-04-01T03:10:48;3.97;;;3.78;;
77111;SDS011;66064;50.226;14.344;2023-04-01T03:13:14;4.10;;;3.90;;
77111;SDS011;66064;50.226;14.344;2023-04-01T03:15:40;4.35;;;4.15;;
77111;SDS011;66064;50.226;14.344;2023-04-01T03:18:07;4.90;;;4.60;;
77111;SDS011;66064;50.226;14.344;2023-04-01T03:20:34;4.05;;;3.83;;
77111;SDS011;66064;50.226;14.344;2023-04-01T03:23:01;4.45;;;4.22;;
77111;SDS011;66064;50.226;14.344;2023-04-01T03:25:28;5.20;;;4.90;;
77111;SDS011;66064;50.226;14.344;2023-04-01T03:27:56;4.75;;;4.35;;
77111;SDS011;66064;50.226;14.344;2023-04-01T03:30:25;5.43;;;5.13;;
77111;SDS011;66064;50.226;14.344;2023-04-01T03:32:52;4.78;;;4.47;;
77111;SDS011;66064;50.226;14.344;2023-04-01T03:35:18;4.72;;;4.43;;
77111;SDS011;66064;50.226;14.344;2023-04-01T03:37:46;5.70;;;5.38;;
77111;SDS011;66064;50.226;14.344;2023-04-01T03:40:13;4.95;;;4.65;;
77111;SDS011;66064;50.226;14.344;2023-04-01T03:42:40;7.03;;;4.75;;
77111;SDS011;66064;50.226;14.344;2023-04-01T03:45:06;4.75;;;4.45;;
77111;SDS011;66064;50.226;14.344;2023-04-01T03:47:33;5.63;;;4.90;;
77111;SDS011;66064;50.226;14.344;2023-04-01T03:49:59;5.57;;;5.05;;
77111;SDS011;66064;50.226;14.344;2023-04-01T03:52:26;6.13;;;5.72;;
77111;SDS011;66064;50.226;14.344;2023-04-01T03:54:52;4.03;;;3.72;;
77111;SDS011;66064;50.226;14.344;2023-04-01T03:57:18;5.50;;;4.97;;
77111;SDS011;66064;50.226;14.344;2023-04-01T03:59:46;4.80;;;4.60;;
77111;SDS011;66064;50.226;14.344;2023-04-01T04:02:13;5.53;;;5.13;;
77111;SDS011;66064;50.226;14.344;2023-04-01T04:04:39;5.57;;;5.18;;
77111;SDS011;66064;50.226;14.344;2023-04-01T04:07:06;5.90;;;4.65;;
77111;SDS011;66064;50.226;14.344;2023-04-01T04:09:33;5.50;;;5.07;;
77111;SDS011;66064;50.226;14.344;2023-04-01T04:11:59;6.85;;;6.25;;
77111;SDS011;66064;50.226;14.344;2023-04-01T04:14:26;4.82;;;4.53;;
77111;SDS011;66064;50.226;14.344;2023-04-01T04:16:53;4.85;;;4.45;;
77111;SDS011;66064;50.226;14.344;2023-04-01T04:19:19;7.18;;;6.43;;
77111;SDS011;66064;50.226;14.344;2023-04-01T04:21:46;6.13;;;5.57;;
77111;SDS011;66064;50.226;14.344;2023-04-01T04:24:12;6.75;;;6.25;;
77111;SDS011;66064;50.226;14.344;2023-04-01T04:26:38;5.85;;;5.55;;
77111;SDS011;66064;50.226;14.344;2023-04-01T04:29:05;6.72;;;5.70;;
77111;SDS011;66064;50.226;14.344;2023-04-01T04:31:32;4.75;;;4.45;;
77111;SDS011;66064;50.226;14.344;2023-04-01T04:33:59;5.47;;;5.13;;
77111;SDS011;66064;50.226;14.344;2023-04-01T04:36:27;6.45;;;6.03;;
77111;SDS011;66064;50.226;14.344;2023-04-01T04:38:53;8.77;;;5.63;;
77111;SDS011;66064;50.226;14.344;2023-04-01T04:41:20;5.97;;;5.53;;
77111;SDS011;66064;50.226;14.344;2023-04-01T04:43:51;5.93;;;5.60;;
77111;SDS011;66064;50.226;14.344;2023-04-01T04:46:19;5.60;;;4.00;;
77111;SDS011;66064;50.226;14.344;2023-04-01T04:48:46;5.57;;;5.25;;
77111;SDS011;66064;50.226;14.344;2023-04-01T04:51:13;9.98;;;4.97;;
77111;SDS011;66064;50.226;14.344;2023-04-01T04:53:41;4.57;;;4.28;;
77111;SDS011;66064;50.226;14.344;2023-04-01T04:56:08;5.22;;;4.72;;
77111;SDS011;66064;50.226;14.344;2023-04-01T04:58:34;5.72;;;5.28;;
77111;SDS011;66064;50.226;14.344;2023-04-01T05:01:06;5.00;;;4.70;;
77111;SDS011;66064;50.226;14.344;2023-04-01T05:03:36;5.75;;;5.45;;
77111;SDS011;66064;50.226;14.344;2023-04-01T05:06:04;6.00;;;5.70;;
77111;SDS011;66064;50.226;14.344;2023-04-01T05:08:30;7.82;;;5.25;;
77111;SDS011;66064;50.226;14.344;2023-04-01T05:10:58;5.55;;;5.15;;
77111;SDS011;66064;50.226;14.344;2023-04-01T05:13:25;5.15;;;4.85;;
77111;SDS011;66064;50.226;14.344;2023-04-01T05:15:52;6.25;;;5.53;;
77111;SDS011;66064;50.226;14.344;2023-04-01T05:18:26;6.70;;;6.30;;
77111;SDS011;66064;50.226;14.344;2023-04-01T05:20:53;5.68;;;5.38;;
77111;SDS011;66064;50.226;14.344;2023-04-01T05:23:20;5.05;;;4.72;;
77111;SDS011;66064;50.226;14.344;2023-04-01T05:25:48;5.80;;;5.28;;
77111;SDS011;66064;50.226;14.344;2023-04-01T05:28:15;6.25;;;5.30;;
77111;SDS011;66064;50.226;14.344;2023-04-01T05:30:43;5.45;;;5.05;;
77111;SDS011;66064;50.226;14.344;2023-04-01T05:33:09;6.18;;;5.78;;
77111;SDS011;66064;50.226;14.344;2023-04-01T05:35:36;8.00;;;5.07;;
77111;SDS011;66064;50.226;14.344;2023-04-01T05:38:03;7.72;;;7.03;;
77111;SDS011;66064;50.226;14.344;2023-04-01T05:40:30;4.40;;;4.07;;
77111;SDS011;66064;50.226;14.344;2023-04-01T05:42:58;5.75;;;5.30;;
77111;SDS011;66064;50.226;14.344;2023-04-01T05:45:25;5.72;;;5.35;;
77111;SDS011;66064;50.226;14.344;2023-04-01T05:47:50;6.35;;;5.43;;
77111;SDS011;66064;50.226;14.344;2023-04-01T05:50:17;5.18;;;4.88;;
77111;SDS011;66064;50.226;14.344;2023-04-01T05:52:44;5.28;;;4.78;;
77111;SDS011;66064;50.226;14.344;2023-04-01T05:55:10;6.00;;;5.60;;
77111;SDS011;66064;50.226;14.344;2023-04-01T05:57:37;4.45;;;4.15;;
77111;SDS011;66064;50.226;14.344;2023-04-01T06:00:04;5.70;;;5.35;;
77111;SDS011;66064;50.226;14.344;2023-04-01T06:02:32;6.57;;;4.78;;
77111;SDS011;66064;50.226;14.344;2023-04-01T06:05:40;5.22;;;4.88;;
77111;SDS011;66064;50.226;14.344;2023-04-01T06:07:50;5.22;;;4.93;;
77111;SDS011;66064;50.226;14.344;2023-04-01T06:10:25;5.22;;;4.80;;
77111;SDS011;66064;50.226;14.344;2023-04-01T06:16:07;3.95;;;3.72;;
77111;SDS011;66064;50.226;14.344;2023-04-01T06:22:27;4.85;;;4.55;;
77111;SDS011;66064;50.226;14.344;2023-04-01T06:28:27;4.60;;;4.30;;
77111;SDS011;66064;50.226;14.344;2023-04-01T06:31:51;4.20;;;3.90;;
77111;SDS011;66064;50.226;14.344;2023-04-01T06:34:02;5.28;;;4.97;;
77111;SDS011;66064;50.226;14.344;2023-04-01T06:39:53;4.15;;;3.85;;
77111;SDS011;66064;50.226;14.344;2023-04-01T06:48:14;4.43;;;4.13;;
77111;SDS011;66064;50.226;14.344;2023-04-01T06:51:05;4.28;;;4.07;;
77111;SDS011;66064;50.226;14.344;2023-04-01T06:53:43;3.67;;;3.47;;
77111;SDS011;66064;50.226;14.344;2023-04-01T06:56:20;4.22;;;4.00;;
77111;SDS011;66064;50.226;14.344;2023-04-01T07:01:35;4.63;;;4.32;;
77111;SDS011;66064;50.226;14.344;2023-04-01T07:04:06;3.67;;;3.17;;
77111;SDS011;66064;50.226;14.344;2023-04-01T07:06:44;4.93;;;4.53;;
77111;SDS011;66064;50.226;14.344;2023-04-01T07:09:12;4.60;;;4.10;;
77111;SDS011;66064;50.226;14.344;2023-04-01T07:11:44;4.50;;;4.25;;
77111;SDS011;66064;50.226;14.344;2023-04-01T07:14:19;4.22;;;4.00;;
77111;SDS011;66064;50.226;14.344;2023-04-01T07:16:56;5.10;;;4.65;;
77111;SDS011;66064;50.226;14.344;2023-04-01T07:25:14;4.13;;;3.83;;
77111;SDS011;66064;50.226;14.344;2023-04-01T07:27:44;5.13;;;4.82;;
77111;SDS011;66064;50.226;14.344;2023-04-01T07:30:19;3.75;;;3.55;;
77111;SDS011;66064;50.226;14.344;2023-04-01T07:33:09;4.43;;;4.07;;
77111;SDS011;66064;50.226;14.344;2023-04-01T07:35:46;4.68;;;4.28;;
77111;SDS011;66064;50.226;14.344;2023-04-01T07:38:41;5.75;;;5.35;;
77111;SDS011;66064;50.226;14.344;2023-04-01T07:41:38;4.88;;;4.57;;
77111;SDS011;66064;50.226;14.344;2023-04-01T07:44:16;5.20;;;4.85;;
77111;SDS011;66064;50.226;14.344;2023-04-01T07:46:53;5.68;;;5.38;;
77111;SDS011;66064;50.226;14.344;2023-04-01T07:54:50;3.40;;;3.17;;
77111;SDS011;66064;50.226;14.344;2023-04-01T07:57:39;5.15;;;4.85;;
77111;SDS011;66064;50.226;14.344;2023-04-01T08:00:49;4.32;;;4.03;;
77111;SDS011;66064;50.226;14.344;2023-04-01T08:03:40;4.32;;;4.00;;
77111;SDS011;66064;50.226;14.344;2023-04-01T08:06:36;4.70;;;4.28;;
77111;SDS011;66064;50.226;14.344;2023-04-01T08:23:13;4.38;;;3.97;;
77111;SDS011;66064;50.226;14.344;2023-04-01T08:26:01;3.75;;;3.45;;
77111;SDS011;66064;50.226;14.344;2023-04-01T08:28:37;4.15;;;3.85;;
77111;SDS011;66064;50.226;14.344;2023-04-01T08:31:22;4.07;;;3.88;;
77111;SDS011;66064;50.226;14.344;2023-04-01T08:33:59;2.97;;;2.78;;
77111;SDS011;66064;50.226;14.344;2023-04-01T08:36:40;3.10;;;2.90;;
77111;SDS011;66064;50.226;14.344;2023-04-01T08:47:44;2.88;;;2.67;;
77111;SDS011;66064;50.226;14.344;2023-04-01T08:50:23;2.90;;;2.67;;
77111;SDS011;66064;50.226;14.344;2023-04-01T08:58:42;2.85;;;2.50;;
77111;SDS011;66064;50.226;14.344;2023-04-01T09:06:56;2.05;;;1.90;;
77111;SDS011;66064;50.226;14.344;2023-04-01T09:09:45;1.77;;;1.67;;
77111;SDS011;66064;50.226;14.344;2023-04-01T09:12:46;2.80;;;1.90;;
77111;SDS011;66064;50.226;14.344;2023-04-01T09:33:17;2.10;;;1.90;;
77111;SDS011;66064;50.226;14.344;2023-04-01T09:38:44;3.30;;;1.77;;
77111;SDS011;66064;50.226;14.344;2023-04-01T09:41:34;2.42;;;2.17;;
77111;SDS011;66064;50.226;14.344;2023-04-01T09:44:23;2.55;;;2.35;;
77111;SDS011;66064;50.226;14.344;2023-04-01T10:10:24;3.33;;;3.13;;
77111;SDS011;66064;50.226;14.344;2023-04-01T10:18:36;2.95;;;2.75;;
77111;SDS011;66064;50.226;14.344;2023-04-01T10:34:40;2.45;;;2.25;;
77111;SDS011;66064;50.226;14.344;2023-04-01T10:40:19;3.33;;;3.10;;
77111;SDS011;66064;50.226;14.344;2023-04-01T10:51:40;1.75;;;1.65;;
77111;SDS011;66064;50.226;14.344;2023-04-01T11:00:30;2.42;;;1.58;;
77111;SDS011;66064;50.226;14.344;2023-04-01T11:08:55;1.95;;;1.77;;
77111;SDS011;66064;50.226;14.344;2023-04-01T11:31:16;1.70;;;1.60;;
77111;SDS011;66064;50.226;14.344;2023-04-01T11:33:49;1.95;;;1.83;;
77111;SDS011;66064;50.226;14.344;2023-04-01T11:41:56;2.33;;;2.08;;
77111;SDS011;66064;50.226;14.344;2023-04-01T11:44:39;2.10;;;2.00;;
77111;SDS011;66064;50.226;14.344;2023-04-01T11:52:40;2.30;;;2.10;;
77111;SDS011;66064;50.226;14.344;2023-04-01T12:01:24;2.45;;;2.25;;
77111;SDS011;66064;50.226;14.344;2023-04-01T12:04:27;3.00;;;2.80;;
77111;SDS011;66064;50.226;14.344;2023-04-01T12:09:48;2.90;;;2.70;;
77111;SDS011;66064;50.226;14.344;2023-04-01T12:12:39;2.67;;;2.55;;
77111;SDS011;66064;50.226;14.344;2023-04-01T12:21:51;2.30;;;2.20;;
77111;SDS011;66064;50.226;14.344;2023-04-01T12:27:59;2.60;;;2.40;;
77111;SDS011;66064;50.226;14.344;2023-04-01T12:42:19;2.65;;;2.47;;
77111;SDS011;66064;50.226;14.344;2023-04-01T12:44:50;2.85;;;2.65;;
77111;SDS011;66064;50.226;14.344;2023-04-01T12:56:02;2.55;;;2.35;;
77111;SDS011;66064;50.226;14.344;2023-04-01T12:58:40;2.17;;;1.98;;
77111;SDS011;66064;50.226;14.344;2023-04-01T13:15:23;2.83;;;2.63;;
77111;SDS011;66064;50.226;14.344;2023-04-01T13:17:58;2.83;;;2.63;;
77111;SDS011;66064;50.226;14.344;2023-04-01T13:20:50;2.85;;;2.65;;
77111;SDS011;66064;50.226;14.344;2023-04-01T13:29:43;3.45;;;2.35;;
77111;SDS011;66064;50.226;14.344;2023-04-01T13:32:21;2.13;;;1.90;;
77111;SDS011;66064;50.226;14.344;2023-04-01T13:43:52;9.05;;;7.05;;
77111;SDS011;66064;50.226;14.344;2023-04-01T13:49:11;3.50;;;3.20;;
77111;SDS011;66064;50.226;14.344;2023-04-01T13:52:00;3.03;;;2.83;;
77111;SDS011;66064;50.226;14.344;2023-04-01T13:57:40;2.97;;;2.78;;
77111;SDS011;66064;50.226;14.344;2023-04-01T14:00:30;2.80;;;2.60;;
77111;SDS011;66064;50.226;14.344;2023-04-01T14:03:27;3.67;;;2.97;;
77111;SDS011;66064;50.226;14.344;2023-04-01T14:22:54;3.22;;;2.92;;
77111;SDS011;66064;50.226;14.344;2023-04-01T14:48:39;3.42;;;3.13;;
77111;SDS011;66064;50.226;14.344;2023-04-01T14:50:56;5.10;;;3.42;;
77111;SDS011;66064;50.226;14.344;2023-04-01T14:53:29;5.65;;;3.88;;
77111;SDS011;66064;50.226;14.344;2023-04-01T14:56:01;5.40;;;4.90;;
77111;SDS011;66064;50.226;14.344;2023-04-01T15:04:27;3.13;;;2.92;;
77111;SDS011;66064;50.226;14.344;2023-04-01T15:15:58;2.88;;;2.67;;
77111;SDS011;66064;50.226;14.344;2023-04-01T15:18:44;3.72;;;3.33;;
77111;SDS011;66064;50.226;14.344;2023-04-01T15:24:46;3.13;;;2.92;;
77111;SDS011;66064;50.226;14.344;2023-04-01T15:30:25;3.70;;;3.42;;
77111;SDS011;66064;50.226;14.344;2023-04-01T15:33:20;3.50;;;3.25;;
77111;SDS011;66064;50.226;14.344;2023-04-01T15:36:10;7.00;;;5.47;;
77111;SDS011;66064;50.226;14.344;2023-04-01T15:39:09;4.13;;;3.83;;
77111;SDS011;66064;50.226;14.344;2023-04-01T15:49:50;3.60;;;3.30;;
77111;SDS011;66064;50.226;14.344;2023-04-01T15:55:37;3.58;;;3.28;;
77111;SDS011;66064;50.226;14.344;2023-04-01T16:00:48;4.30;;;4.00;;
77111;SDS011;66064;50.226;14.344;2023-04-01T16:11:47;4.50;;;4.20;;
77111;SDS011;66064;50.226;14.344;2023-04-01T16:19:52;3.58;;;3.28;;
77111;SDS011;66064;50.226;14.344;2023-04-01T16:22:39;3.33;;;3.13;;
77111;SDS011;66064;50.226;14.344;2023-04-01T16:28:12;3.25;;;2.97;;
77111;SDS011;66064;50.226;14.344;2023-04-01T16:31:00;4.03;;;3.45;;
77111;SDS011;66064;50.226;14.344;2023-04-01T16:37:07;3.53;;;3.33;;
77111;SDS011;66064;50.226;14.344;2023-04-01T16:42:56;3.30;;;3.10;;
77111;SDS011;66064;50.226;14.344;2023-04-01T16:50:59;3.80;;;3.50;;
77111;SDS011;66064;50.226;14.344;2023-04-01T17:01:27;3.80;;;3.58;;
77111;SDS011;66064;50.226;14.344;2023-04-01T17:06:54;4.30;;;4.10;;
77111;SDS011;66064;50.226;14.344;2023-04-01T17:09:33;3.97;;;3.67;;
77111;SDS011;66064;50.226;14.344;2023-04-01T17:12:30;3.97;;;3.78;;
77111;SDS011;66064;50.226;14.344;2023-04-01T17:18:03;3.33;;;3.13;;
77111;SDS011;66064;50.226;14.344;2023-04-01T17:21:00;3.90;;;3.65;;
77111;SDS011;66064;50.226;14.344;2023-04-01T17:23:34;5.18;;;4.80;;
77111;SDS011;66064;50.226;14.344;2023-04-01T17:40:57;5.05;;;4.65;;
77111;SDS011;66064;50.226;14.344;2023-04-01T17:54:46;5.90;;;5.50;;
77111;SDS011;66064;50.226;14.344;2023-04-01T18:01:05;4.57;;;4.28;;
77111;SDS011;66064;50.226;14.344;2023-04-01T18:06:54;5.38;;;4.72;;
77111;SDS011;66064;50.226;14.344;2023-04-01T18:15:08;6.28;;;5.78;;
77111;SDS011;66064;50.226;14.344;2023-04-01T18:20:28;5.57;;;5.18;;
77111;SDS011;66064;50.226;14.344;2023-04-01T18:23:09;6.78;;;6.22;;
77111;SDS011;66064;50.226;14.344;2023-04-01T18:25:45;5.65;;;5.05;;
77111;SDS011;66064;50.226;14.344;2023-04-01T18:28:16;7.32;;;6.72;;
77111;SDS011;66064;50.226;14.344;2023-04-01T18:31:17;5.47;;;5.05;;
77111;SDS011;66064;50.226;14.344;2023-04-01T18:36:44;5.95;;;5.45;;
77111;SDS011;66064;50.226;14.344;2023-04-01T18:39:23;5.60;;;4.85;;
77111;SDS011;66064;50.226;14.344;2023-04-01T18:44:47;4.35;;;4.03;;
77111;SDS011;66064;50.226;14.344;2023-04-01T18:53:39;7.18;;;6.57;;
77111;SDS011;66064;50.226;14.344;2023-04-01T18:56:13;5.75;;;5.35;;
77111;SDS011;66064;50.226;14.344;2023-04-01T18:58:54;6.32;;;5.80;;
77111;SDS011;66064;50.226;14.344;2023-04-01T19:04:43;6.78;;;6.05;;
77111;SDS011;66064;50.226;14.344;2023-04-01T19:13:02;5.35;;;5.05;;
77111;SDS011;66064;50.226;14.344;2023-04-01T19:41:45;5.10;;;4.80;;
77111;SDS011;66064;50.226;14.344;2023-04-01T19:47:02;5.72;;;5.32;;
77111;SDS011;66064;50.226;14.344;2023-04-01T19:49:57;5.25;;;4.85;;
77111;SDS011;66064;50.226;14.344;2023-04-01T19:52:42;5.45;;;5.07;;
77111;SDS011;66064;50.226;14.344;2023-04-01T19:58:02;6.13;;;5.60;;
77111;SDS011;66064;50.226;14.344;2023-04-01T20:00:52;5.18;;;4.82;;
77111;SDS011;66064;50.226;14.344;2023-04-01T20:22:20;4.63;;;4.25;;
77111;SDS011;66064;50.226;14.344;2023-04-01T20:24:56;6.75;;;6.10;;
77111;SDS011;66064;50.226;14.344;2023-04-01T20:27:27;5.45;;;4.95;;
77111;SDS011;66064;50.226;14.344;2023-04-01T20:38:19;9.18;;;8.32;;
77111;SDS011;66064;50.226;14.344;2023-04-01T20:41:06;8.48;;;6.95;;
77111;SDS011;66064;50.226;14.344;2023-04-01T20:46:48;12.02;;;9.93;;
77111;SDS011;66064;50.226;14.344;2023-04-01T20:52:29;7.97;;;6.07;;
77111;SDS011;66064;50.226;14.344;2023-04-01T21:02:59;6.93;;;6.03;;
77111;SDS011;66064;50.226;14.344;2023-04-01T21:09:02;9.30;;;8.63;;
77111;SDS011;66064;50.226;14.344;2023-04-01T21:31:05;21.90;;;14.98;;
77111;SDS011;66064;50.226;14.344;2023-04-01T21:50:39;12.73;;;11.38;;
77111;SDS011;66064;50.226;14.344;2023-04-01T21:56:29;7.03;;;6.50;;
77111;SDS011;66064;50.226;14.344;2023-04-01T21:59:23;7.78;;;7.18;;
77111;SDS011;66064;50.226;14.344;2023-04-01T22:04:52;6.63;;;6.13;;
77111;SDS011;66064;50.226;14.344;2023-04-01T22:07:40;6.85;;;6.35;;
77111;SDS011;66064;50.226;14.344;2023-04-01T22:18:32;5.85;;;5.50;;
77111;SDS011;66064;50.226;14.344;2023-04-01T22:21:03;5.93;;;5.40;;
77111;SDS011;66064;50.226;14.344;2023-04-01T22:24:00;7.07;;;6.57;;
77111;SDS011;66064;50.226;14.344;2023-04-01T22:37:40;8.95;;;5.60;;
77111;SDS011;66064;50.226;14.344;2023-04-01T22:40:34;7.00;;;6.28;;
77111;SDS011;66064;50.226;14.344;2023-04-01T22:43:12;6.90;;;6.40;;
77111;SDS011;66064;50.226;14.344;2023-04-01T22:54:31;5.53;;;5.15;;
77111;SDS011;66064;50.226;14.344;2023-04-01T23:00:28;7.35;;;6.65;;
77111;SDS011;66064;50.226;14.344;2023-04-01T23:05:59;14.13;;;11.68;;
77111;SDS011;66064;50.226;14.344;2023-04-01T23:14:05;20.90;;;15.10;;
77111;SDS011;66064;50.226;14.344;2023-04-01T23:16:51;16.63;;;13.93;;
77111;SDS011;66064;50.226;14.344;2023-04-01T23:19:40;15.25;;;8.45;;
77111;SDS011;66064;50.226;14.344;2023-04-01T23:35:53;11.70;;;8.65;;
77111;SDS011;66064;50.226;14.344;2023-04-01T23:38:21;11.77;;;10.73;;
77111;SDS011;66064;50.226;14.344;2023-04-01T23:40:51;14.27;;;11.73;;
77111;SDS011;66064;50.226;14.344;2023-04-01T23:43:24;12.35;;;11.20;;
77111;SDS011;66064;50.226;14.344;2023-04-01T23:45:54;12.82;;;9.60;;
77111;SDS011;66064;50.226;14.344;2023-04-01T23:48:26;10.05;;;9.05;;
77111;SDS011;66064;50.226;14.344;2023-04-01T23:50:56;11.27;;;8.35;;
77111;SDS011;66064;50.226;14.344;2023-04-01T23:53:24;7.55;;;6.95;;
77111;SDS011;66064;50.226;14.344;2023-04-01T23:55:53;6.63;;;6.13;;
77111;SDS011;66064;50.226;14.344;2023-04-01T23:58:27;9.25;;;8.57;;
